Time;durP1;ratioP1;P1;durP2;ratioP2;P2;SDS_P1;SDS_P2;PMS_P1;PMS_P2;Temp;Humidity;BMP_temperature;BMP_pressure;BME280_temperature;BME280_humidity;BME280_pressure;Samples;Min_cycle;Max_cycle;Signal;HPM_P1;HPM_P2
2022/12/13 00:00:18;;;;;;;46.47;25.27;;;;;;;-3.99;100.00;100017.19;5056766;28;20205;-77
2022/12/13 00:02:45;;;;;;;51.92;24.17;;;;;;;-3.97;100.00;100013.69;5061391;28;20217;-74
2022/12/13 00:05:12;;;;;;;48.63;25.08;;;;;;;-3.97;100.00;100013.69;5063240;28;20300;-77
2022/12/13 00:07:39;;;;;;;50.92;25.65;;;;;;;-4.00;100.00;100004.03;5073103;28;20298;-75
2022/12/13 00:10:07;;;;;;;49.17;25.23;;;;;;;-3.97;100.00;100011.06;5072727;28;20265;-73
2022/12/13 00:12:35;;;;;;;54.42;25.45;;;;;;;-4.04;100.00;100010.13;5072997;28;20222;-76
2022/12/13 00:15:01;;;;;;;48.20;24.83;;;;;;;-4.05;100.00;100016.25;5060048;28;20198;-77
2022/12/13 00:17:28;;;;;;;43.17;23.77;;;;;;;-4.10;100.00;100007.44;5049730;28;20235;-74
2022/12/13 00:19:54;;;;;;;47.78;24.70;;;;;;;-4.11;100.00;100010.97;5052389;28;20198;-75
2022/12/13 00:22:21;;;;;;;47.15;24.45;;;;;;;-4.10;100.00;100013.59;5051892;28;20208;-77
2022/12/13 00:24:47;;;;;;;47.60;24.85;;;;;;;-4.13;100.00;100010.94;5050735;28;20574;-75
2022/12/13 00:27:14;;;;;;;51.65;24.30;;;;;;;-4.18;100.00;100012.66;5056373;28;20226;-76
2022/12/13 00:29:42;;;;;;;54.45;23.45;;;;;;;-4.23;100.00;100006.47;5060413;28;20198;-75
2022/12/13 00:32:08;;;;;;;51.45;26.23;;;;;;;-4.30;100.00;100009.91;5061547;28;20202;-75
2022/12/13 00:34:35;;;;;;;45.15;24.42;;;;;;;-4.37;100.00;100003.72;5056333;28;20193;-76
2022/12/13 00:37:01;;;;;;;48.83;22.90;;;;;;;-4.37;100.00;99997.59;5066902;28;20280;-76
2022/12/13 00:39:28;;;;;;;46.30;24.65;;;;;;;-4.31;100.00;99997.66;5062226;28;20197;-76
2022/12/13 00:41:55;;;;;;;47.35;24.25;;;;;;;-4.32;100.00;99998.50;5059093;28;20598;-76
2022/12/13 00:44:21;;;;;;;48.80;25.23;;;;;;;-4.33;100.00;99997.63;5065408;28;20206;-74
2022/12/13 00:46:50;;;;;;;52.60;23.30;;;;;;;-4.32;100.00;99995.88;5067933;28;20217;-76
2022/12/13 00:49:17;;;;;;;50.97;25.02;;;;;;;-4.30;100.00;99988.88;5061295;28;20224;-77
2022/12/13 00:51:44;;;;;;;41.92;23.33;;;;;;;-4.31;100.00;99990.63;5052352;28;20224;-76
2022/12/13 00:54:11;;;;;;;48.08;23.75;;;;;;;-4.33;100.00;99994.13;5055867;28;20204;-74
2022/12/13 00:56:38;;;;;;;49.47;23.95;;;;;;;-4.34;100.00;99993.25;5057146;28;20203;-75
2022/12/13 00:59:05;;;;;;;50.70;23.10;;;;;;;-4.33;100.00;99995.00;5056675;28;20216;-74
2022/12/13 01:01:34;;;;;;;48.40;25.67;;;;;;;-4.37;100.00;99987.94;5054968;28;20200;-75
2022/12/13 01:04:05;;;;;;;47.53;22.88;;;;;;;-4.40;100.00;99986.19;5048979;28;20300;-73
2022/12/13 01:06:35;;;;;;;51.50;24.65;;;;;;;-4.42;100.00;99982.66;5053954;28;20211;-76
2022/12/13 01:09:03;;;;;;;46.58;23.13;;;;;;;-4.44;100.00;99979.13;5057025;28;20205;-75
2022/12/13 01:11:29;;;;;;;51.08;24.00;;;;;;;-4.34;100.00;99982.72;5057108;28;20235;-74
2022/12/13 01:13:56;;;;;;;48.45;22.13;;;;;;;-4.34;100.00;99981.81;5056729;28;20205;-76
2022/12/13 01:16:23;;;;;;;46.28;24.35;;;;;;;-4.41;100.00;99983.53;5058082;28;20207;-76
2022/12/13 01:18:49;;;;;;;51.15;23.58;;;;;;;-4.42;100.00;99980.03;5059213;28;20229;-76
2022/12/13 01:21:19;;;;;;;43.47;22.40;;;;;;;-4.44;100.00;99981.75;5062528;28;20189;-74
2022/12/13 01:23:46;;;;;;;46.65;22.42;;;;;;;-4.43;100.00;99985.28;5065799;28;20751;-74
2022/12/13 01:26:18;;;;;;;51.60;23.75;;;;;;;-4.42;100.00;99989.66;5064390;28;20658;-75
2022/12/13 01:28:46;;;;;;;51.55;23.33;;;;;;;-4.44;100.00;99991.41;5063275;28;20280;-75
2022/12/13 01:31:15;;;;;;;44.75;22.20;;;;;;;-4.55;100.00;99993.91;5062255;28;20288;-74
2022/12/13 01:33:42;;;;;;;47.38;23.48;;;;;;;-4.56;100.00;99994.81;5050491;28;20288;-75
2022/12/13 01:36:11;;;;;;;54.92;26.40;;;;;;;-4.56;100.00;99992.16;5055768;28;20202;-76
2022/12/13 01:38:39;;;;;;;43.45;23.60;;;;;;;-4.67;100.00;99988.56;5055903;28;20587;-73
2022/12/13 01:41:06;;;;;;;48.03;25.25;;;;;;;-4.76;100.00;99996.34;5054004;28;20202;-74
2022/12/13 01:43:55;;;;;;;41.63;22.17;;;;;;;-4.76;100.00;99988.47;5057580;28;20197;-74
2022/12/13 01:46:22;;;;;;;44.38;22.23;;;;;;;-4.85;100.00;99981.38;5062702;28;20189;-73
2022/12/13 01:48:54;;;;;;;50.38;22.35;;;;;;;-4.89;100.00;99980.44;5059407;28;20217;-73
2022/12/13 01:51:27;;;;;;;46.88;23.85;;;;;;;-4.90;100.00;99980.47;5059485;28;20213;-73
2022/12/13 01:53:58;;;;;;;52.22;25.63;;;;;;;-4.87;100.00;99981.34;5057679;28;20193;-73
2022/12/13 01:56:33;;;;;;;49.33;22.98;;;;;;;-4.78;100.00;99985.81;5058216;28;20201;-73
2022/12/13 01:59:02;;;;;;;47.45;22.35;;;;;;;-4.78;100.00;99983.19;5060316;28;20264;-72
2022/12/13 02:01:29;;;;;;;45.28;25.85;;;;;;;-4.76;100.00;99991.97;5056510;28;20208;-75
2022/12/13 02:03:56;;;;;;;52.03;24.88;;;;;;;-4.78;100.00;99977.94;5050566;28;20213;-73
2022/12/13 02:06:28;;;;;;;47.35;22.80;;;;;;;-4.85;100.00;99986.63;5060906;28;20193;-74
2022/12/13 02:08:57;;;;;;;43.88;21.38;;;;;;;-4.91;100.00;99978.69;5062974;28;20193;-73
2022/12/13 02:11:24;;;;;;;45.17;23.02;;;;;;;-4.89;100.00;99977.81;5056095;28;20251;-75
2022/12/13 02:13:51;;;;;;;46.97;22.63;;;;;;;-4.92;100.00;99969.91;5059460;28;20233;-74
2022/12/13 02:16:28;;;;;;;44.25;23.63;;;;;;;-4.83;100.00;99966.50;5056021;28;20212;-72
2022/12/13 02:19:16;;;;;;;52.58;24.13;;;;;;;-4.83;100.00;99977.03;5058028;28;20213;-75
2022/12/13 02:21:59;;;;;;;53.70;22.73;;;;;;;-4.85;100.00;99970.88;5049896;28;20682;-75
2022/12/13 02:24:55;;;;;;;49.95;24.70;;;;;;;-4.86;100.00;99977.88;5049496;28;20210;-73
2022/12/13 02:27:49;;;;;;;38.85;22.75;;;;;;;-4.86;100.00;99977.88;5056744;28;20217;-73
2022/12/13 02:30:23;;;;;;;53.38;21.77;;;;;;;-4.89;100.00;99971.69;5054336;28;20239;-75
2022/12/13 02:33:08;;;;;;;53.05;23.45;;;;;;;-4.90;100.00;99976.06;5061675;28;20220;-73
2022/12/13 02:35:42;;;;;;;48.30;22.88;;;;;;;-4.94;100.00;99970.78;5056689;28;20201;-72
2022/12/13 02:38:15;;;;;;;42.05;21.70;;;;;;;-4.97;100.00;99976.88;5054763;28;20217;-76
2022/12/13 02:40:44;;;;;;;47.67;22.48;;;;;;;-5.00;100.00;99976.81;5062258;28;20701;-74
2022/12/13 02:43:18;;;;;;;47.15;22.08;;;;;;;-4.97;100.00;99965.50;5063033;28;20343;-75
2022/12/13 02:45:47;;;;;;;50.83;25.10;;;;;;;-4.87;100.00;99970.84;5062951;28;20197;-73
2022/12/13 02:48:18;;;;;;;52.55;23.50;;;;;;;-4.91;100.00;99971.66;5071439;28;20205;-74
2022/12/13 02:50:46;;;;;;;51.35;24.73;;;;;;;-4.88;100.00;99955.09;5072308;28;20194;-73
2022/12/13 02:53:15;;;;;;;47.05;23.80;;;;;;;-4.90;100.00;99962.94;5066091;28;20221;-74
2022/12/13 02:55:42;;;;;;;46.38;23.30;;;;;;;-4.86;100.00;99962.13;5052464;28;20198;-74
2022/12/13 02:58:12;;;;;;;42.10;23.10;;;;;;;-4.95;100.00;99956.78;5053352;28;20715;-74
2022/12/13 03:00:51;;;;;;;43.28;22.27;;;;;;;-4.95;100.00;99951.50;5050778;28;20203;-74
2022/12/13 03:03:29;;;;;;;50.42;22.70;;;;;;;-4.91;100.00;99957.66;5050443;28;20208;-73
2022/12/13 03:09:06;;;;;;;44.67;22.13;;;;;;;-4.94;100.00;99952.38;5044019;28;20212;-72
2022/12/13 03:14:37;;;;;;;43.25;22.48;;;;;;;-5.04;100.00;99951.44;5055492;28;20240;-73
2022/12/13 03:17:07;;;;;;;45.63;23.75;;;;;;;-5.10;100.00;99946.97;5061495;28;20707;-73
2022/12/13 03:19:34;;;;;;;45.50;21.42;;;;;;;-5.08;100.00;99952.25;5060518;28;20194;-73
2022/12/13 03:22:00;;;;;;;40.28;21.42;;;;;;;-5.06;100.00;99948.78;5055698;28;20208;-73
2022/12/13 03:24:27;;;;;;;45.22;23.02;;;;;;;-5.10;100.00;99951.34;5053620;28;20659;-73
2022/12/13 03:26:53;;;;;;;46.75;22.15;;;;;;;-5.15;100.00;99953.06;5067347;28;20216;-73
2022/12/13 03:29:20;;;;;;;53.47;23.50;;;;;;;-5.17;100.00;99944.28;5051003;28;20201;-73
2022/12/13 03:31:46;;;;;;;42.55;20.33;;;;;;;-5.23;100.00;99950.31;5055413;28;20239;-72
2022/12/13 03:34:14;;;;;;;47.35;21.92;;;;;;;-5.18;100.00;99946.00;5053112;28;20197;-74
2022/12/13 03:36:41;;;;;;;53.47;21.98;;;;;;;-5.16;100.00;99946.03;5055874;28;20197;-74
2022/12/13 03:39:07;;;;;;;43.97;21.17;;;;;;;-5.21;100.00;99942.47;5054165;28;20212;-74
2022/12/13 03:41:34;;;;;;;48.17;23.00;;;;;;;-5.19;100.00;99939.00;5050009;28;20194;-73
2022/12/13 03:44:05;;;;;;;41.95;19.70;;;;;;;-5.07;100.00;99938.25;5052706;28;20201;-74
2022/12/13 03:46:32;;;;;;;49.03;21.38;;;;;;;-5.13;100.00;99931.19;5074752;28;20273;-73
2022/12/13 03:48:58;;;;;;;42.25;21.38;;;;;;;-5.06;100.00;99933.00;5065723;28;20258;-73
2022/12/13 03:51:27;;;;;;;46.45;21.85;;;;;;;-5.10;100.00;99927.72;5054886;28;20642;-74
2022/12/13 03:53:53;;;;;;;40.60;21.73;;;;;;;-5.15;100.00;99932.03;5053194;28;20288;-74
2022/12/13 03:56:20;;;;;;;36.97;20.80;;;;;;;-5.13;100.00;99935.53;5054041;28;20200;-75
2022/12/13 03:58:46;;;;;;;53.83;21.58;;;;;;;-5.17;100.00;99939.03;5053748;28;20229;-73
2022/12/13 04:01:16;;;;;;;38.08;20.48;;;;;;;-5.17;100.00;99937.28;5055905;28;20731;-77
2022/12/13 04:03:45;;;;;;;46.17;21.40;;;;;;;-5.26;100.00;99938.06;5048012;28;20203;-75
2022/12/13 04:06:12;;;;;;;44.35;22.05;;;;;;;-5.24;100.00;99935.44;5051652;28;20284;-74
2022/12/13 04:08:40;;;;;;;39.15;20.20;;;;;;;-5.17;100.00;99933.78;5053519;28;20221;-76
2022/12/13 04:13:47;;;;;;;47.95;20.98;;;;;;;-5.35;100.00;99930.06;5045124;28;20285;-75
2022/12/13 04:16:14;;;;;;;39.42;19.08;;;;;;;-5.34;100.00;99934.44;5044473;28;20550;-73
2022/12/13 04:18:40;;;;;;;41.15;20.30;;;;;;;-5.40;100.00;99938.75;5052561;28;20232;-74
2022/12/13 04:21:07;;;;;;;36.92;19.40;;;;;;;-5.39;100.00;99933.53;5053487;28;20383;-75
2022/12/13 04:23:33;;;;;;;40.63;20.77;;;;;;;-5.41;100.00;99932.63;5053855;28;20198;-75
2022/12/13 04:26:02;;;;;;;48.05;19.80;;;;;;;-5.39;100.00;99928.28;5051488;28;20201;-75
2022/12/13 04:28:28;;;;;;;39.00;19.95;;;;;;;-5.41;100.00;99924.75;5052005;28;20221;-75
2022/12/13 04:30:55;;;;;;;43.63;20.13;;;;;;;-5.40;100.00;99934.41;5051910;28;20212;-73
2022/12/13 04:33:22;;;;;;;37.15;17.90;;;;;;;-5.40;100.00;99926.53;5048425;28;20232;-74
2022/12/13 04:35:49;;;;;;;41.97;17.92;;;;;;;-5.51;100.00;99923.75;5059308;28;20213;-74
2022/12/13 04:38:16;;;;;;;33.75;16.80;;;;;;;-5.47;100.00;99920.31;5048196;28;20718;-75
2022/12/13 04:40:43;;;;;;;41.22;18.05;;;;;;;-5.53;100.00;99920.25;5057264;28;20227;-74
2022/12/13 04:43:10;;;;;;;40.22;19.30;;;;;;;-5.44;100.00;99929.97;5055055;28;20202;-74
2022/12/13 04:45:37;;;;;;;41.45;18.15;;;;;;;-5.49;100.00;99934.28;5051560;28;20212;-76
2022/12/13 04:48:04;;;;;;;45.90;20.67;;;;;;;-5.52;100.00;99936.84;5052693;28;20215;-73
2022/12/13 04:50:31;;;;;;;48.25;19.85;;;;;;;-5.54;100.00;99936.84;5051184;28;20677;-72
2022/12/13 04:52:57;;;;;;;34.72;17.92;;;;;;;-5.53;100.00;99935.13;5047681;28;22095;-75
2022/12/13 04:55:24;;;;;;;35.75;18.27;;;;;;;-5.60;100.00;99933.28;5052248;28;20254;-73
2022/12/13 04:57:50;;;;;;;40.50;18.63;;;;;;;-5.62;100.00;99938.50;5050795;28;20592;-72
2022/12/13 05:00:20;;;;;;;39.33;18.08;;;;;;;-5.56;100.00;99940.31;5052089;28;20236;-74
2022/12/13 05:02:46;;;;;;;37.25;18.77;;;;;;;-5.57;100.00;99933.31;5048582;28;20263;-73
2022/12/13 05:05:13;;;;;;;49.28;20.90;;;;;;;-5.53;100.00;99932.50;5049423;28;20280;-74
2022/12/13 05:07:40;;;;;;;45.17;20.05;;;;;;;-5.41;100.00;99930.00;5052140;28;20590;-73
2022/12/13 05:10:07;;;;;;;49.80;19.15;;;;;;;-5.48;100.00;99920.28;5050087;28;20609;-74
2022/12/13 05:12:34;;;;;;;38.95;18.30;;;;;;;-5.55;100.00;99921.97;5053698;28;20217;-75
2022/12/13 05:15:00;;;;;;;47.40;19.42;;;;;;;-5.59;100.00;99932.41;5060235;28;20205;-73
2022/12/13 05:17:28;;;;;;;44.60;18.85;;;;;;;-5.59;100.00;99937.66;5074651;22;22284;-76
2022/12/13 05:19:54;;;;;;;43.67;19.90;;;;;;;-5.59;100.00;99938.53;5041663;28;20623;-75
2022/12/13 05:22:21;;;;;;;42.20;19.70;;;;;;;-5.51;100.00;99936.00;5048804;28;20204;-75
2022/12/13 05:24:48;;;;;;;32.38;17.05;;;;;;;-5.63;100.00;99938.47;5050629;28;20228;-74
2022/12/13 05:27:15;;;;;;;36.60;18.90;;;;;;;-5.63;100.00;99936.75;5051043;28;20276;-75
2022/12/13 05:29:42;;;;;;;40.72;17.65;;;;;;;-5.63;100.00;99938.47;5048691;28;20202;-74
2022/12/13 05:32:08;;;;;;;39.88;20.00;;;;;;;-5.64;100.00;99942.84;5050672;28;20228;-77
2022/12/13 05:34:36;;;;;;;36.10;17.15;;;;;;;-5.59;100.00;99935.03;5049342;28;20225;-79
2022/12/13 05:37:03;;;;;;;39.78;18.60;;;;;;;-5.48;100.00;99929.03;5049599;28;20198;-77
2022/12/13 05:39:29;;;;;;;34.08;18.20;;;;;;;-5.47;100.00;99941.31;5048809;28;20642;-77
2022/12/13 05:41:58;;;;;;;39.78;17.65;;;;;;;-5.56;100.00;99935.06;5046065;28;20212;-77
2022/12/13 05:44:24;;;;;;;40.70;16.92;;;;;;;-5.54;100.00;99929.00;5049478;28;20241;-75
2022/12/13 05:46:51;;;;;;;45.42;19.30;;;;;;;-5.55;100.00;99921.97;5048800;28;20755;-75
2022/12/13 05:49:17;;;;;;;46.92;21.25;;;;;;;-5.66;100.00;99920.94;5045872;28;20264;-77
2022/12/13 05:51:45;;;;;;;38.42;16.55;;;;;;;-5.74;100.00;99923.50;5048058;28;20241;-75
2022/12/13 05:54:13;;;;;;;42.80;19.25;;;;;;;-5.74;100.00;99914.75;5048148;28;20285;-74
2022/12/13 05:56:39;;;;;;;43.13;19.17;;;;;;;-5.79;100.00;99927.78;5050109;28;20194;-76
2022/12/13 05:59:06;;;;;;;41.03;18.92;;;;;;;-5.84;100.00;99925.97;5046052;28;20272;-75
2022/12/13 06:01:33;;;;;;;41.33;17.50;;;;;;;-5.93;100.00;99929.34;5042793;28;20266;-75
2022/12/13 06:03:59;;;;;;;40.58;18.73;;;;;;;-5.95;100.00;99931.09;5046899;28;20288;-76
2022/12/13 06:06:26;;;;;;;44.72;20.30;;;;;;;-6.02;100.00;99930.13;5044220;28;20233;-76
2022/12/13 06:08:54;;;;;;;40.05;18.13;;;;;;;-6.00;100.00;99933.66;5044270;28;20228;-75
2022/12/13 06:11:20;;;;;;;36.90;19.08;;;;;;;-6.09;100.00;99921.28;5045852;28;20236;-75
2022/12/13 06:13:50;;;;;;;36.58;18.55;;;;;;;-6.12;100.00;99926.50;5047515;28;20285;-75
2022/12/13 06:16:17;;;;;;;37.10;19.20;;;;;;;-6.14;100.00;99928.22;5045111;28;20224;-76
2022/12/13 06:18:44;;;;;;;42.25;19.55;;;;;;;-6.14;100.00;99930.84;5042348;28;20268;-76
2022/12/13 06:21:10;;;;;;;46.33;20.13;;;;;;;-6.14;100.00;99930.84;5049132;28;20228;-75
2022/12/13 06:23:37;;;;;;;35.28;18.13;;;;;;;-6.09;100.00;99933.53;5047580;28;20630;-74
2022/12/13 06:26:06;;;;;;;38.30;18.70;;;;;;;-6.19;100.00;99931.66;5046166;28;20274;-75
2022/12/13 06:28:33;;;;;;;40.22;19.60;;;;;;;-6.19;100.00;99934.28;5044819;28;20221;-74
2022/12/13 06:31:00;;;;;;;51.75;21.48;;;;;;;-6.18;100.00;99939.50;5042037;28;20257;-75
2022/12/13 06:33:28;;;;;;;44.22;20.40;;;;;;;-6.17;100.00;99936.03;5045803;28;20222;-73
2022/12/13 06:35:56;;;;;;;39.90;20.42;;;;;;;-6.12;100.00;99939.59;5041739;28;20205;-76
2022/12/13 06:38:23;;;;;;;47.45;19.05;;;;;;;-6.08;100.00;99940.56;5045318;28;20249;-75
2022/12/13 06:40:50;;;;;;;38.58;18.42;;;;;;;-6.02;100.00;99934.50;5047167;28;20233;-74
2022/12/13 06:43:21;;;;;;;39.42;18.02;;;;;;;-5.86;100.00;99933.81;5041408;28;20199;-75
2022/12/13 06:45:47;;;;;;;44.92;19.52;;;;;;;-5.82;100.00;99937.34;5042930;28;20289;-77
2022/12/13 06:48:14;;;;;;;38.83;18.83;;;;;;;-5.88;100.00;99933.81;5043735;28;20240;-76
2022/12/13 06:50:41;;;;;;;40.83;18.70;;;;;;;-5.79;100.00;99943.50;5043964;28;20762;-75
2022/12/13 06:53:07;;;;;;;35.88;19.00;;;;;;;-5.75;100.00;99934.81;5041453;28;20224;-76
2022/12/13 06:55:35;;;;;;;35.95;18.48;;;;;;;-5.74;100.00;99935.72;5042644;28;20747;-75
2022/12/13 06:58:01;;;;;;;39.80;18.10;;;;;;;-5.75;100.00;99933.94;5041849;28;20313;-76
2022/12/13 07:00:29;;;;;;;62.15;26.60;;;;;;;-5.77;100.00;99935.66;5045219;28;20205;-76
2022/12/13 07:02:56;;;;;;;43.45;20.52;;;;;;;-5.71;100.00;99935.75;5049615;28;20226;-74
2022/12/13 07:05:23;;;;;;;41.75;18.95;;;;;;;-5.82;100.00;99935.63;5048729;28;20202;-77
2022/12/13 07:07:50;;;;;;;42.97;19.05;;;;;;;-5.91;100.00;99938.13;5049505;28;20249;-76
2022/12/13 07:10:17;;;;;;;39.35;18.60;;;;;;;-5.97;100.00;99925.84;5043145;28;20216;-76
2022/12/13 07:12:44;;;;;;;38.03;17.88;;;;;;;-5.99;100.00;99932.81;5036896;28;20241;-74
2022/12/13 07:15:11;;;;;;;40.58;18.95;;;;;;;-5.95;100.00;99938.97;5041098;28;20198;-76
2022/12/13 07:17:38;;;;;;;42.30;19.40;;;;;;;-5.97;100.00;99935.44;5048504;28;20229;-76
2022/12/13 07:20:07;;;;;;;38.85;18.55;;;;;;;-5.81;100.00;99936.47;5051906;28;20270;-74
2022/12/13 07:22:34;;;;;;;42.17;18.30;;;;;;;-5.73;100.00;99943.59;5051128;28;20627;-75
2022/12/13 07:25:02;;;;;;;41.10;19.52;;;;;;;-5.63;100.00;99935.84;5057287;28;20348;-76
2022/12/13 07:27:28;;;;;;;44.30;19.90;;;;;;;-5.59;100.00;99943.78;5056860;28;20214;-76
2022/12/13 07:29:55;;;;;;;41.88;19.05;;;;;;;-5.61;100.00;99936.75;5055525;28;20179;-74
2022/12/13 07:32:21;;;;;;;41.00;19.05;;;;;;;-5.58;100.00;99934.19;5058059;28;20201;-74
2022/12/13 07:34:49;;;;;;;41.13;18.30;;;;;;;-5.56;100.00;99935.06;5058827;28;20213;-75
2022/12/13 07:37:16;;;;;;;36.30;17.70;;;;;;;-5.51;100.00;99933.38;5055538;28;20218;-75
2022/12/13 07:39:42;;;;;;;41.90;20.10;;;;;;;-5.48;100.00;99938.66;5054253;28;20284;-77
2022/12/13 07:42:09;;;;;;;41.83;18.33;;;;;;;-5.45;100.00;99939.59;5056612;28;20261;-75
2022/12/13 07:44:37;;;;;;;45.05;20.58;;;;;;;-5.39;100.00;99933.53;5053473;28;20250;-74
2022/12/13 07:47:03;;;;;;;33.53;17.52;;;;;;;-5.29;100.00;99935.41;5053792;28;20205;-75
2022/12/13 07:49:30;;;;;;;47.13;21.40;;;;;;;-5.18;100.00;99939.88;5052777;28;20233;-74
2022/12/13 07:51:58;;;;;;;47.83;21.10;;;;;;;-5.01;100.00;99942.69;5054274;28;20229;-74
2022/12/13 07:54:25;;;;;;;45.08;19.85;;;;;;;-4.79;100.00;99946.38;5055495;28;20229;-74
2022/12/13 07:56:52;;;;;;;38.25;18.95;;;;;;;-4.64;100.00;99936.91;5058401;28;20182;-75
2022/12/13 07:59:21;;;;;;;38.05;18.45;;;;;;;-4.40;100.00;99940.59;5054912;28;20245;-73
2022/12/13 08:01:48;;;;;;;44.40;23.70;;;;;;;-3.95;100.00;99938.28;5053755;28;20198;-74
2022/12/13 08:04:14;;;;;;;43.70;21.02;;;;;;;-3.18;100.00;99936.88;5055457;28;20226;-75
2022/12/13 08:06:41;;;;;;;36.80;19.70;;;;;;;-2.26;100.00;99946.63;5058304;28;20262;-72
2022/12/13 08:09:09;;;;;;;37.58;18.50;;;;;;;-1.58;100.00;99937.72;5057594;28;20230;-73
2022/12/13 08:11:35;;;;;;;35.63;17.95;;;;;;;-1.32;100.00;99936.72;5054837;28;20223;-75
2022/12/13 08:14:02;;;;;;;32.90;18.45;;;;;;;-0.85;100.00;99939.09;5049641;28;20274;-74
2022/12/13 08:16:28;;;;;;;30.17;16.63;;;;;;;-0.37;100.00;99945.81;5051643;28;20249;-74
2022/12/13 08:18:55;;;;;;;35.33;16.63;;;;;;;0.14;100.00;99952.41;5053363;28;20258;-72
2022/12/13 08:21:22;;;;;;;26.77;15.68;;;;;;;0.47;100.00;99944.97;5056833;28;20264;-75
2022/12/13 08:23:48;;;;;;;31.23;17.17;;;;;;;1.12;100.00;99941.53;5056860;28;20218;-74
2022/12/13 08:26:16;;;;;;;28.65;15.70;;;;;;;1.59;100.00;99947.91;5055466;28;20225;-74
2022/12/13 08:28:43;;;;;;;27.90;17.30;;;;;;;1.92;100.00;99934.94;5051903;28;20234;-77
2022/12/13 08:31:12;;;;;;;28.98;17.25;;;;;;;2.60;100.00;99939.84;5043386;28;20202;-75
2022/12/13 08:33:41;;;;;;;30.27;16.55;;;;;;;3.18;100.00;99943.06;5052888;28;20299;-76
2022/12/13 08:36:09;;;;;;;29.67;17.48;;;;;;;3.08;100.00;99937.97;5053959;28;20295;-75
2022/12/13 08:38:35;;;;;;;33.15;18.45;;;;;;;3.80;100.00;99937.16;5047129;28;20252;-73
2022/12/13 08:41:02;;;;;;;32.83;18.83;;;;;;;3.81;100.00;99936.25;5040506;28;20209;-74
2022/12/13 08:43:30;;;;;;;31.77;18.92;;;;;;;4.41;100.00;99938.25;5052448;28;20213;-74
2022/12/13 08:45:56;;;;;;;32.65;19.40;;;;;;;4.44;100.00;99934.63;5054089;28;20226;-75
2022/12/13 08:48:24;;;;;;;27.08;17.48;;;;;;;4.57;100.00;99918.22;5053873;28;20233;-74
2022/12/13 08:50:51;;;;;;;28.27;17.75;;;;;;;4.85;100.00;99928.09;5049688;28;20279;-75
2022/12/13 08:53:17;;;;;;;30.75;19.50;;;;;;;5.29;100.00;99914.28;5048837;28;20230;-75
2022/12/13 08:55:44;;;;;;;25.67;18.55;;;;;;;5.96;100.00;99924.63;5051842;28;20269;-75
2022/12/13 08:58:10;;;;;;;28.95;18.90;;;;;;;6.31;100.00;99920.72;5051039;28;20214;-76
2022/12/13 09:00:39;;;;;;;25.52;17.52;;;;;;;6.59;100.00;99925.94;5054552;28;20236;-73
2022/12/13 09:03:06;;;;;;;27.13;17.92;;;;;;;6.40;97.23;99919.50;5051629;28;20197;-74
2022/12/13 09:05:41;;;;;;;24.08;15.93;;;;;;;6.37;80.86;99916.94;5044301;28;20202;-74
2022/12/13 09:08:07;;;;;;;26.65;18.50;;;;;;;6.70;71.76;99924.69;5045874;28;20309;-75
2022/12/13 09:10:34;;;;;;;27.70;18.25;;;;;;;5.25;62.54;99936.69;5043525;28;20194;-74
2022/12/13 09:13:00;;;;;;;28.63;17.40;;;;;;;6.58;64.87;99947.41;5036589;28;20204;-75
2022/12/13 09:15:27;;;;;;;32.00;19.60;;;;;;;7.31;57.28;99941.09;5040642;28;20289;-74
2022/12/13 09:17:55;;;;;;;31.98;20.38;;;;;;;7.73;54.38;99932.25;5036028;28;20232;-75
2022/12/13 09:20:22;;;;;;;30.38;18.80;;;;;;;7.92;51.81;99935.06;5038070;28;20261;-75
2022/12/13 09:22:48;;;;;;;30.30;19.15;;;;;;;8.87;49.45;99932.75;5039858;28;20277;-74
2022/12/13 09:25:16;;;;;;;29.20;18.92;;;;;;;8.86;48.30;99931.84;5038149;28;20268;-74
2022/12/13 09:27:43;;;;;;;26.00;18.77;;;;;;;8.14;48.55;99941.25;5044761;28;20260;-73
2022/12/13 09:30:12;;;;;;;24.77;18.58;;;;;;;8.49;48.67;99946.06;5048455;28;20229;-73
2022/12/13 09:32:39;;;;;;;28.88;19.45;;;;;;;9.02;47.02;99950.81;5047460;28;20198;-73
2022/12/13 09:35:08;;;;;;;25.73;18.75;;;;;;;8.51;46.34;99953.09;5047294;28;20224;-74
2022/12/13 09:37:36;;;;;;;23.40;18.55;;;;;;;8.98;45.71;99959.97;5036734;28;20317;-73
2022/12/13 09:40:04;;;;;;;25.70;17.63;;;;;;;9.51;44.73;99963.75;5046962;28;20280;-73
2022/12/13 09:42:33;;;;;;;26.05;17.85;;;;;;;10.00;43.94;99959.53;5049117;28;20229;-74
2022/12/13 09:45:02;;;;;;;26.42;17.85;;;;;;;10.00;42.51;99964.06;5050177;28;20225;-75
2022/12/13 09:47:39;;;;;;;25.52;17.85;;;;;;;8.95;45.18;99961.00;5046298;28;20289;-73
2022/12/13 09:50:13;;;;;;;26.63;18.35;;;;;;;10.18;43.53;99964.97;5040412;28;20265;-75
2022/12/13 09:52:42;;;;;;;27.02;18.20;;;;;;;10.60;42.25;99967.25;5044652;28;20221;-74
2022/12/13 09:55:21;;;;;;;27.10;18.77;;;;;;;10.68;41.38;99963.31;5041472;28;20301;-74
2022/12/13 09:57:48;;;;;;;26.92;19.92;;;;;;;10.73;41.37;99958.56;5031408;28;20588;-75
2022/12/13 10:00:18;;;;;;;25.55;18.83;;;;;;;11.04;40.88;99955.97;5039050;28;20206;-74
2022/12/13 10:02:47;;;;;;;26.90;19.02;;;;;;;10.38;40.92;99958.59;5037971;28;20288;-76
2022/12/13 10:05:21;;;;;;;24.40;18.10;;;;;;;11.14;39.68;99950.06;5038478;28;20194;-76
2022/12/13 10:07:48;;;;;;;23.85;18.85;;;;;;;11.11;39.73;99939.47;5039052;28;20686;-74
2022/12/13 10:10:15;;;;;;;21.23;16.95;;;;;;;11.50;39.52;99946.28;5041015;28;20212;-74
2022/12/13 10:12:43;;;;;;;25.40;19.23;;;;;;;11.56;38.89;99940.56;5042777;28;20723;-74
2022/12/13 10:15:13;;;;;;;22.13;17.55;;;;;;;11.89;38.59;99949.44;5044549;28;20786;-74
2022/12/13 10:17:40;;;;;;;25.10;17.70;;;;;;;12.01;38.15;99941.59;5042629;28;20260;-76
2022/12/13 10:20:16;;;;;;;23.25;18.25;;;;;;;11.90;37.40;99950.31;5044878;28;20202;-75
2022/12/13 10:22:43;;;;;;;23.70;18.33;;;;;;;12.99;36.77;99938.31;5025222;28;20222;-75
2022/12/13 10:25:10;;;;;;;21.20;18.20;;;;;;;11.75;37.67;99941.22;5038595;28;20652;-75
2022/12/13 10:27:39;;;;;;;20.05;16.70;;;;;;;11.56;37.97;99951.34;5043820;28;20242;-75
2022/12/13 10:30:10;;;;;;;21.75;18.23;;;;;;;12.26;37.31;99943.69;5047813;28;20194;-76
2022/12/13 10:32:45;;;;;;;21.92;17.05;;;;;;;13.16;36.48;99942.69;5032458;28;20207;-74
2022/12/13 10:35:22;;;;;;;24.48;18.40;;;;;;;12.92;36.22;99928.84;5044411;28;20218;-73
2022/12/13 10:37:50;;;;;;;22.73;18.35;;;;;;;12.69;36.37;99927.59;5046111;28;20282;-76
2022/12/13 10:40:30;;;;;;;22.45;17.38;;;;;;;13.00;36.07;99925.66;5054665;28;20228;-75
2022/12/13 10:43:07;;;;;;;21.13;17.10;;;;;;;12.33;36.76;99904.56;5033789;28;20548;-77
2022/12/13 10:45:34;;;;;;;21.55;17.60;;;;;;;12.61;36.38;99903.72;5047636;28;20221;-76
2022/12/13 10:48:02;;;;;;;20.90;17.70;;;;;;;12.34;36.58;99913.53;5048707;28;20272;-75
2022/12/13 10:50:30;;;;;;;21.38;18.63;;;;;;;11.17;37.28;99910.34;5047059;28;20203;-75
2022/12/13 10:53:00;;;;;;;21.83;18.52;;;;;;;10.97;38.98;99905.19;5032520;28;20207;-76
2022/12/13 10:55:29;;;;;;;19.95;16.50;;;;;;;11.82;37.28;99904.81;5035294;28;20232;-74
2022/12/13 10:57:59;;;;;;;18.67;16.58;;;;;;;12.35;36.11;99901.78;5046440;28;20285;-78
2022/12/13 11:00:37;;;;;;;18.40;15.10;;;;;;;12.12;36.16;99895.94;5044717;28;20205;-76
2022/12/13 11:03:04;;;;;;;21.08;16.77;;;;;;;12.74;35.88;99893.03;5053147;28;20228;-76
2022/12/13 11:05:34;;;;;;;19.05;15.43;;;;;;;13.40;34.98;99896.97;5054398;28;20221;-74
2022/12/13 11:08:25;;;;;;;22.17;17.50;;;;;;;12.77;35.37;99897.38;5051824;28;20222;-75
2022/12/13 11:10:57;;;;;;;25.55;19.48;;;;;;;13.43;34.98;99901.31;5043597;28;20218;-75
2022/12/13 11:13:32;;;;;;;20.35;16.02;;;;;;;13.74;33.82;99897.47;5039745;28;20269;-73
2022/12/13 11:16:00;;;;;;;20.77;15.90;;;;;;;13.30;34.06;99882.34;5047956;28;20232;-73
2022/12/13 11:18:34;;;;;;;21.75;16.23;;;;;;;13.47;34.74;99884.78;5046269;28;20516;-74
2022/12/13 11:21:07;;;;;;;21.75;16.00;;;;;;;13.22;34.23;99885.47;5049427;28;20229;-75
2022/12/13 11:23:39;;;;;;;19.85;16.45;;;;;;;13.70;33.81;99868.88;5051426;28;20260;-74
2022/12/13 11:26:09;;;;;;;20.45;15.65;;;;;;;13.56;34.29;99873.34;5051452;28;20190;-78